sensor_id;sensor_type;location;lat;lon;timestamp;temperature;humidity
48686;DHT22;34485;51.536;3.816;2023-02-28T00:00:21;2.80;99.90
48686;DHT22;34485;51.536;3.816;2023-02-28T00:02:47;2.70;99.90
48686;DHT22;34485;51.536;3.816;2023-02-28T00:05:15;2.70;99.90
48686;DHT22;34485;51.536;3.816;2023-02-28T00:07:42;2.60;99.90
48686;DHT22;34485;51.536;3.816;2023-02-28T00:10:10;2.60;99.90
48686;DHT22;34485;51.536;3.816;2023-02-28T00:12:36;2.60;99.90
48686;DHT22;34485;51.536;3.816;2023-02-28T00:15:05;2.60;99.90
48686;DHT22;34485;51.536;3.816;2023-02-28T00:17:31;2.60;99.90
48686;DHT22;34485;51.536;3.816;2023-02-28T00:19:57;2.60;99.90
48686;DHT22;34485;51.536;3.816;2023-02-28T00:22:27;2.60;99.90
48686;DHT22;34485;51.536;3.816;2023-02-28T00:24:52;2.60;99.90
48686;DHT22;34485;51.536;3.816;2023-02-28T00:27:18;2.60;99.90
48686;DHT22;34485;51.536;3.816;2023-02-28T00:29:43;2.60;99.90
48686;DHT22;34485;51.536;3.816;2023-02-28T00:32:09;2.60;99.90
48686;DHT22;34485;51.536;3.816;2023-02-28T00:34:34;2.60;99.90
48686;DHT22;34485;51.536;3.816;2023-02-28T00:37:08;2.60;99.90
48686;DHT22;34485;51.536;3.816;2023-02-28T00:39:35;2.60;99.90
48686;DHT22;34485;51.536;3.816;2023-02-28T00:42:02;2.60;99.90
48686;DHT22;34485;51.536;3.816;2023-02-28T00:44:28;2.60;99.90
48686;DHT22;34485;51.536;3.816;2023-02-28T00:46:54;2.60;99.90
48686;DHT22;34485;51.536;3.816;2023-02-28T00:49:20;2.60;99.90
48686;DHT22;34485;51.536;3.816;2023-02-28T00:51:46;2.50;99.90
48686;DHT22;34485;51.536;3.816;2023-02-28T00:54:12;2.50;99.90
48686;DHT22;34485;51.536;3.816;2023-02-28T00:56:38;2.40;99.90
48686;DHT22;34485;51.536;3.816;2023-02-28T00:59:04;2.40;99.90
48686;DHT22;34485;51.536;3.816;2023-02-28T01:01:30;2.30;99.90
48686;DHT22;34485;51.536;3.816;2023-02-28T01:03:55;2.30;99.90
48686;DHT22;34485;51.536;3.816;2023-02-28T01:06:21;2.30;99.90
48686;DHT22;34485;51.536;3.816;2023-02-28T01:08:47;2.30;99.90
48686;DHT22;34485;51.536;3.816;2023-02-28T01:11:15;2.20;99.90
48686;DHT22;34485;51.536;3.816;2023-02-28T01:13:42;2.20;99.90
48686;DHT22;34485;51.536;3.816;2023-02-28T01:16:08;2.20;99.90
48686;DHT22;34485;51.536;3.816;2023-02-28T01:18:33;2.20;99.90
48686;DHT22;34485;51.536;3.816;2023-02-28T01:21:06;2.10;99.90
48686;DHT22;34485;51.536;3.816;2023-02-28T01:23:32;2.20;99.90
48686;DHT22;34485;51.536;3.816;2023-02-28T01:26:06;2.10;99.90
48686;DHT22;34485;51.536;3.816;2023-02-28T01:28:32;2.10;99.90
48686;DHT22;34485;51.536;3.816;2023-02-28T01:30:58;2.10;99.90
48686;DHT22;34485;51.536;3.816;2023-02-28T01:33:23;2.00;99.90
48686;DHT22;34485;51.536;3.816;2023-02-28T01:35:49;2.00;99.90
48686;DHT22;34485;51.536;3.816;2023-02-28T01:38:15;2.00;99.90
48686;DHT22;34485;51.536;3.816;2023-02-28T01:40:41;2.10;99.90
48686;DHT22;34485;51.536;3.816;2023-02-28T01:43:28;2.10;99.90
48686;DHT22;34485;51.536;3.816;2023-02-28T01:45:55;2.10;99.90
48686;DHT22;34485;51.536;3.816;2023-02-28T01:48:24;2.20;99.90
48686;DHT22;34485;51.536;3.816;2023-02-28T01:50:51;2.20;99.90
48686;DHT22;34485;51.536;3.816;2023-02-28T01:53:21;2.30;99.90
48686;DHT22;34485;51.536;3.816;2023-02-28T01:55:50;2.30;99.90
48686;DHT22;34485;51.536;3.816;2023-02-28T01:58:17;2.30;99.90
48686;DHT22;34485;51.536;3.816;2023-02-28T02:00:43;2.40;99.90
48686;DHT22;34485;51.536;3.816;2023-02-28T02:03:12;2.40;99.90
48686;DHT22;34485;51.536;3.816;2023-02-28T02:05:39;2.40;99.90
48686;DHT22;34485;51.536;3.816;2023-02-28T02:08:08;2.40;99.90
48686;DHT22;34485;51.536;3.816;2023-02-28T02:10:46;2.50;99.90
48686;DHT22;34485;51.536;3.816;2023-02-28T02:16:24;2.60;99.90
48686;DHT22;34485;51.536;3.816;2023-02-28T02:21:47;2.80;99.90
48686;DHT22;34485;51.536;3.816;2023-02-28T02:27:03;2.90;99.90
48686;DHT22;34485;51.536;3.816;2023-02-28T02:35:11;3.10;99.90
48686;DHT22;34485;51.536;3.816;2023-02-28T02:37:50;3.10;99.90
48686;DHT22;34485;51.536;3.816;2023-02-28T02:40:22;3.20;99.90
48686;DHT22;34485;51.536;3.816;2023-02-28T02:45:22;3.30;99.90
48686;DHT22;34485;51.536;3.816;2023-02-28T02:47:49;3.30;99.90
48686;DHT22;34485;51.536;3.816;2023-02-28T02:50:26;3.40;99.90
48686;DHT22;34485;51.536;3.816;2023-02-28T02:52:57;3.40;99.90
48686;DHT22;34485;51.536;3.816;2023-02-28T02:55:24;3.50;99.90
48686;DHT22;34485;51.536;3.816;2023-02-28T02:57:54;3.50;99.90
48686;DHT22;34485;51.536;3.816;2023-02-28T03:00:24;3.50;99.90
48686;DHT22;34485;51.536;3.816;2023-02-28T03:02:52;3.50;99.90
48686;DHT22;34485;51.536;3.816;2023-02-28T03:05:30;3.50;99.90
48686;DHT22;34485;51.536;3.816;2023-02-28T03:07:57;3.50;99.90
48686;DHT22;34485;51.536;3.816;2023-02-28T03:10:41;3.50;99.90
48686;DHT22;34485;51.536;3.816;2023-02-28T03:24:19;3.50;99.90
48686;DHT22;34485;51.536;3.816;2023-02-28T03:26:58;3.50;99.90
48686;DHT22;34485;51.536;3.816;2023-02-28T03:29:35;3.60;99.90
48686;DHT22;34485;51.536;3.816;2023-02-28T03:32:11;3.60;99.90
48686;DHT22;34485;51.536;3.816;2023-02-28T03:35:09;3.60;99.90
48686;DHT22;34485;51.536;3.816;2023-02-28T03:37:35;3.60;99.90
48686;DHT22;34485;51.536;3.816;2023-02-28T03:40:17;3.60;99.90
48686;DHT22;34485;51.536;3.816;2023-02-28T03:42:49;3.60;99.90
48686;DHT22;34485;51.536;3.816;2023-02-28T03:45:22;3.60;99.90
48686;DHT22;34485;51.536;3.816;2023-02-28T03:50:43;3.70;99.90
48686;DHT22;34485;51.536;3.816;2023-02-28T03:53:25;3.70;99.90
48686;DHT22;34485;51.536;3.816;2023-02-28T03:59:02;3.70;99.90
48686;DHT22;34485;51.536;3.816;2023-02-28T04:01:39;3.80;99.90
48686;DHT22;34485;51.536;3.816;2023-02-28T04:04:07;3.80;99.90
48686;DHT22;34485;51.536;3.816;2023-02-28T04:06:34;3.80;99.90
48686;DHT22;34485;51.536;3.816;2023-02-28T04:09:00;3.80;99.90
48686;DHT22;34485;51.536;3.816;2023-02-28T04:11:44;3.80;99.90
48686;DHT22;34485;51.536;3.816;2023-02-28T04:14:11;3.80;99.90
48686;DHT22;34485;51.536;3.816;2023-02-28T04:16:39;3.80;99.90
48686;DHT22;34485;51.536;3.816;2023-02-28T04:19:07;3.80;99.90
48686;DHT22;34485;51.536;3.816;2023-02-28T04:21:43;3.80;99.90
48686;DHT22;34485;51.536;3.816;2023-02-28T04:24:11;3.80;99.90
48686;DHT22;34485;51.536;3.816;2023-02-28T04:26:42;3.80;99.90
48686;DHT22;34485;51.536;3.816;2023-02-28T04:29:10;3.80;99.90
48686;DHT22;34485;51.536;3.816;2023-02-28T04:31:35;3.80;99.90
48686;DHT22;34485;51.536;3.816;2023-02-28T04:34:02;3.80;99.90
48686;DHT22;34485;51.536;3.816;2023-02-28T04:36:27;3.80;99.90
48686;DHT22;34485;51.536;3.816;2023-02-28T04:38:53;3.80;99.90
48686;DHT22;34485;51.536;3.816;2023-02-28T04:41:20;3.80;99.90
48686;DHT22;34485;51.536;3.816;2023-02-28T04:43:46;3.80;99.90
48686;DHT22;34485;51.536;3.816;2023-02-28T04:46:12;3.80;99.90
48686;DHT22;34485;51.536;3.816;2023-02-28T04:48:38;3.70;99.90
48686;DHT22;34485;51.536;3.816;2023-02-28T04:51:10;3.70;99.90
48686;DHT22;34485;51.536;3.816;2023-02-28T04:53:37;3.70;99.90
48686;DHT22;34485;51.536;3.816;2023-02-28T04:56:03;3.70;99.90
48686;DHT22;34485;51.536;3.816;2023-02-28T04:58:29;3.70;99.90
48686;DHT22;34485;51.536;3.816;2023-02-28T05:01:05;3.70;99.90
48686;DHT22;34485;51.536;3.816;2023-02-28T05:03:38;3.70;99.90
48686;DHT22;34485;51.536;3.816;2023-02-28T05:06:06;3.70;99.90
48686;DHT22;34485;51.536;3.816;2023-02-28T05:08:32;3.70;99.90
48686;DHT22;34485;51.536;3.816;2023-02-28T05:10:57;3.70;99.90
48686;DHT22;34485;51.536;3.816;2023-02-28T05:13:24;3.80;99.90
48686;DHT22;34485;51.536;3.816;2023-02-28T05:15:49;3.80;99.90
48686;DHT22;34485;51.536;3.816;2023-02-28T05:18:15;3.80;99.90
48686;DHT22;34485;51.536;3.816;2023-02-28T05:20:40;3.80;99.90
48686;DHT22;34485;51.536;3.816;2023-02-28T05:23:06;3.80;99.90
48686;DHT22;34485;51.536;3.816;2023-02-28T05:25:31;3.80;99.90
48686;DHT22;34485;51.536;3.816;2023-02-28T05:27:57;3.80;99.90
48686;DHT22;34485;51.536;3.816;2023-02-28T05:30:23;3.80;99.90
48686;DHT22;34485;51.536;3.816;2023-02-28T05:32:50;3.90;99.90
48686;DHT22;34485;51.536;3.816;2023-02-28T05:35:16;3.80;99.90
48686;DHT22;34485;51.536;3.816;2023-02-28T05:37:42;3.80;99.90
48686;DHT22;34485;51.536;3.816;2023-02-28T05:40:08;3.80;99.90
48686;DHT22;34485;51.536;3.816;2023-02-28T05:42:37;3.80;99.90
48686;DHT22;34485;51.536;3.816;2023-02-28T05:45:04;3.90;99.90
48686;DHT22;34485;51.536;3.816;2023-02-28T05:47:29;3.80;99.90
48686;DHT22;34485;51.536;3.816;2023-02-28T05:49:55;3.80;99.90
48686;DHT22;34485;51.536;3.816;2023-02-28T05:52:21;3.80;99.90
48686;DHT22;34485;51.536;3.816;2023-02-28T05:54:46;3.90;99.90
48686;DHT22;34485;51.536;3.816;2023-02-28T05:57:12;3.80;99.90
48686;DHT22;34485;51.536;3.816;2023-02-28T05:59:37;3.80;99.90
48686;DHT22;34485;51.536;3.816;2023-02-28T06:02:15;3.80;99.90
48686;DHT22;34485;51.536;3.816;2023-02-28T06:04:41;3.90;99.90
48686;DHT22;34485;51.536;3.816;2023-02-28T06:07:07;3.80;99.90
48686;DHT22;34485;51.536;3.816;2023-02-28T06:09:33;3.80;99.90
48686;DHT22;34485;51.536;3.816;2023-02-28T06:12:00;3.70;99.90
48686;DHT22;34485;51.536;3.816;2023-02-28T06:14:28;3.70;99.90
48686;DHT22;34485;51.536;3.816;2023-02-28T06:16:53;3.70;99.90
48686;DHT22;34485;51.536;3.816;2023-02-28T06:19:19;3.80;99.90
48686;DHT22;34485;51.536;3.816;2023-02-28T06:21:44;3.80;99.90
48686;DHT22;34485;51.536;3.816;2023-02-28T06:24:10;3.80;99.90
48686;DHT22;34485;51.536;3.816;2023-02-28T06:26:36;3.70;99.90
48686;DHT22;34485;51.536;3.816;2023-02-28T06:29:02;3.70;99.90
48686;DHT22;34485;51.536;3.816;2023-02-28T06:31:28;3.60;99.90
48686;DHT22;34485;51.536;3.816;2023-02-28T06:33:55;3.60;99.90
48686;DHT22;34485;51.536;3.816;2023-02-28T06:36:21;3.60;99.90
48686;DHT22;34485;51.536;3.816;2023-02-28T06:38:46;3.60;99.90
48686;DHT22;34485;51.536;3.816;2023-02-28T06:41:17;3.60;99.90
48686;DHT22;34485;51.536;3.816;2023-02-28T06:43:43;3.60;99.90
48686;DHT22;34485;51.536;3.816;2023-02-28T06:46:12;3.50;99.90
48686;DHT22;34485;51.536;3.816;2023-02-28T06:48:39;3.40;99.90
48686;DHT22;34485;51.536;3.816;2023-02-28T06:51:10;3.30;99.90
48686;DHT22;34485;51.536;3.816;2023-02-28T06:53:36;3.20;99.90
48686;DHT22;34485;51.536;3.816;2023-02-28T06:56:07;3.20;99.90
48686;DHT22;34485;51.536;3.816;2023-02-28T06:58:33;3.10;99.90
48686;DHT22;34485;51.536;3.816;2023-02-28T07:00:59;3.10;99.90
48686;DHT22;34485;51.536;3.816;2023-02-28T07:03:25;3.00;99.90
48686;DHT22;34485;51.536;3.816;2023-02-28T07:05:50;2.90;99.90
48686;DHT22;34485;51.536;3.816;2023-02-28T07:08:16;2.90;99.90
48686;DHT22;34485;51.536;3.816;2023-02-28T07:10:42;2.90;99.90
48686;DHT22;34485;51.536;3.816;2023-02-28T07:13:08;2.90;99.90
48686;DHT22;34485;51.536;3.816;2023-02-28T07:15:35;2.90;99.90
48686;DHT22;34485;51.536;3.816;2023-02-28T07:18:01;2.90;99.90
48686;DHT22;34485;51.536;3.816;2023-02-28T07:20:26;2.90;99.90
48686;DHT22;34485;51.536;3.816;2023-02-28T07:22:52;2.90;99.90
48686;DHT22;34485;51.536;3.816;2023-02-28T07:25:28;2.90;99.90
48686;DHT22;34485;51.536;3.816;2023-02-28T07:27:55;2.80;99.90
48686;DHT22;34485;51.536;3.816;2023-02-28T07:30:21;2.70;99.90
48686;DHT22;34485;51.536;3.816;2023-02-28T07:32:47;2.60;99.90
48686;DHT22;34485;51.536;3.816;2023-02-28T07:35:13;2.60;99.90
48686;DHT22;34485;51.536;3.816;2023-02-28T07:37:43;2.50;99.90
48686;DHT22;34485;51.536;3.816;2023-02-28T07:40:11;2.50;99.90
48686;DHT22;34485;51.536;3.816;2023-02-28T07:42:37;2.40;99.90
48686;DHT22;34485;51.536;3.816;2023-02-28T07:45:04;2.40;99.90
48686;DHT22;34485;51.536;3.816;2023-02-28T07:47:31;2.40;99.90
48686;DHT22;34485;51.536;3.816;2023-02-28T07:49:57;2.50;99.90
48686;DHT22;34485;51.536;3.816;2023-02-28T07:52:23;2.40;99.90
48686;DHT22;34485;51.536;3.816;2023-02-28T07:54:50;2.40;99.90
48686;DHT22;34485;51.536;3.816;2023-02-28T07:57:16;2.40;99.90
48686;DHT22;34485;51.536;3.816;2023-02-28T07:59:42;2.30;99.90
48686;DHT22;34485;51.536;3.816;2023-02-28T08:02:13;2.30;99.90
48686;DHT22;34485;51.536;3.816;2023-02-28T08:04:38;2.30;99.90
48686;DHT22;34485;51.536;3.816;2023-02-28T08:07:04;2.30;99.90
48686;DHT22;34485;51.536;3.816;2023-02-28T08:09:30;2.20;99.90
48686;DHT22;34485;51.536;3.816;2023-02-28T08:11:55;2.20;99.90
48686;DHT22;34485;51.536;3.816;2023-02-28T08:14:21;2.10;99.90
48686;DHT22;34485;51.536;3.816;2023-02-28T08:16:47;2.10;99.90
48686;DHT22;34485;51.536;3.816;2023-02-28T08:19:12;2.00;99.90
48686;DHT22;34485;51.536;3.816;2023-02-28T08:21:41;1.90;99.90
48686;DHT22;34485;51.536;3.816;2023-02-28T08:24:06;1.90;99.90
48686;DHT22;34485;51.536;3.816;2023-02-28T08:26:32;1.90;99.90
48686;DHT22;34485;51.536;3.816;2023-02-28T08:28:58;1.90;99.90
48686;DHT22;34485;51.536;3.816;2023-02-28T08:31:23;1.90;99.90
48686;DHT22;34485;51.536;3.816;2023-02-28T08:33:49;1.90;99.90
48686;DHT22;34485;51.536;3.816;2023-02-28T08:36:17;1.90;99.90
48686;DHT22;34485;51.536;3.816;2023-02-28T08:38:43;2.00;99.90
48686;DHT22;34485;51.536;3.816;2023-02-28T08:41:11;1.90;99.90
48686;DHT22;34485;51.536;3.816;2023-02-28T08:43:37;2.00;99.90
48686;DHT22;34485;51.536;3.816;2023-02-28T08:46:03;2.00;99.90
48686;DHT22;34485;51.536;3.816;2023-02-28T08:48:31;2.00;99.90
48686;DHT22;34485;51.536;3.816;2023-02-28T08:53:22;2.10;99.90
48686;DHT22;34485;51.536;3.816;2023-02-28T08:56:16;2.00;99.90
48686;DHT22;34485;51.536;3.816;2023-02-28T08:58:42;1.90;99.90
48686;DHT22;34485;51.536;3.816;2023-02-28T09:01:13;2.00;99.90
48686;DHT22;34485;51.536;3.816;2023-02-28T09:03:39;2.00;99.90
48686;DHT22;34485;51.536;3.816;2023-02-28T09:06:06;2.10;99.90
48686;DHT22;34485;51.536;3.816;2023-02-28T09:08:32;2.20;99.90
48686;DHT22;34485;51.536;3.816;2023-02-28T09:10:58;2.30;99.90
48686;DHT22;34485;51.536;3.816;2023-02-28T09:13:25;2.30;99.90
48686;DHT22;34485;51.536;3.816;2023-02-28T09:15:51;2.40;99.90
48686;DHT22;34485;51.536;3.816;2023-02-28T09:18:17;2.40;99.90
48686;DHT22;34485;51.536;3.816;2023-02-28T09:20:43;2.40;99.90
48686;DHT22;34485;51.536;3.816;2023-02-28T09:23:10;2.50;99.90
48686;DHT22;34485;51.536;3.816;2023-02-28T09:25:40;2.50;99.90
48686;DHT22;34485;51.536;3.816;2023-02-28T09:28:10;2.60;99.90
48686;DHT22;34485;51.536;3.816;2023-02-28T09:30:37;2.70;99.90
48686;DHT22;34485;51.536;3.816;2023-02-28T09:33:02;2.70;99.90
48686;DHT22;34485;51.536;3.816;2023-02-28T09:35:28;2.80;99.90
48686;DHT22;34485;51.536;3.816;2023-02-28T09:37:56;2.70;99.90
48686;DHT22;34485;51.536;3.816;2023-02-28T09:40:23;2.70;99.90
48686;DHT22;34485;51.536;3.816;2023-02-28T09:42:52;2.80;99.90
48686;DHT22;34485;51.536;3.816;2023-02-28T09:45:32;2.80;99.90
48686;DHT22;34485;51.536;3.816;2023-02-28T09:48:04;2.80;99.90
48686;DHT22;34485;51.536;3.816;2023-02-28T09:50:51;2.80;99.90
48686;DHT22;34485;51.536;3.816;2023-02-28T09:53:33;2.80;99.90
48686;DHT22;34485;51.536;3.816;2023-02-28T09:56:10;2.90;99.90
48686;DHT22;34485;51.536;3.816;2023-02-28T09:59:05;2.90;99.90
48686;DHT22;34485;51.536;3.816;2023-02-28T10:04:53;3.10;99.90
48686;DHT22;34485;51.536;3.816;2023-02-28T10:13:53;3.40;99.90
48686;DHT22;34485;51.536;3.816;2023-02-28T10:15:57;3.40;99.90
48686;DHT22;34485;51.536;3.816;2023-02-28T10:18:44;3.40;99.90
48686;DHT22;34485;51.536;3.816;2023-02-28T10:21:40;3.50;99.90
48686;DHT22;34485;51.536;3.816;2023-02-28T10:24:35;3.50;99.90
48686;DHT22;34485;51.536;3.816;2023-02-28T10:27:26;3.60;99.90
48686;DHT22;34485;51.536;3.816;2023-02-28T10:29:55;3.60;99.90
48686;DHT22;34485;51.536;3.816;2023-02-28T10:32:32;3.60;99.90
48686;DHT22;34485;51.536;3.816;2023-02-28T10:37:57;3.70;99.90
48686;DHT22;34485;51.536;3.816;2023-02-28T10:45:21;3.80;99.90
48686;DHT22;34485;51.536;3.816;2023-02-28T10:47:59;3.80;99.90
48686;DHT22;34485;51.536;3.816;2023-02-28T11:01:16;4.30;99.90
48686;DHT22;34485;51.536;3.816;2023-02-28T11:03:42;4.20;99.90
48686;DHT22;34485;51.536;3.816;2023-02-28T11:06:16;4.30;99.90
48686;DHT22;34485;51.536;3.816;2023-02-28T11:08:58;4.50;99.90
48686;DHT22;34485;51.536;3.816;2023-02-28T11:11:26;4.50;99.90
48686;DHT22;34485;51.536;3.816;2023-02-28T11:14:04;4.50;99.90
48686;DHT22;34485;51.536;3.816;2023-02-28T11:16:37;4.50;99.90
48686;DHT22;34485;51.536;3.816;2023-02-28T11:19:06;4.60;99.90
48686;DHT22;34485;51.536;3.816;2023-02-28T11:21:56;4.80;99.90
48686;DHT22;34485;51.536;3.816;2023-02-28T11:26:51;5.30;99.90
48686;DHT22;34485;51.536;3.816;2023-02-28T11:29:39;5.40;99.90
48686;DHT22;34485;51.536;3.816;2023-02-28T11:34:40;5.80;99.90
48686;DHT22;34485;51.536;3.816;2023-02-28T11:37:12;6.00;99.90
48686;DHT22;34485;51.536;3.816;2023-02-28T11:52:43;6.30;99.90
48686;DHT22;34485;51.536;3.816;2023-02-28T11:55:26;6.30;99.60
48686;DHT22;34485;51.536;3.816;2023-02-28T11:57:59;6.10;98.90
48686;DHT22;34485;51.536;3.816;2023-02-28T12:03:37;6.00;99.90
48686;DHT22;34485;51.536;3.816;2023-02-28T12:06:29;6.00;99.90
48686;DHT22;34485;51.536;3.816;2023-02-28T12:27:34;6.40;98.70
48686;DHT22;34485;51.536;3.816;2023-02-28T12:32:44;6.20;98.40
48686;DHT22;34485;51.536;3.816;2023-02-28T12:35:18;6.20;99.60
48686;DHT22;34485;51.536;3.816;2023-02-28T12:37:57;6.40;99.50
48686;DHT22;34485;51.536;3.816;2023-02-28T12:41:02;6.50;98.40
48686;DHT22;34485;51.536;3.816;2023-02-28T12:43:21;6.30;96.70
48686;DHT22;34485;51.536;3.816;2023-02-28T12:45:56;6.40;97.30
48686;DHT22;34485;51.536;3.816;2023-02-28T12:48:29;6.40;98.70
48686;DHT22;34485;51.536;3.816;2023-02-28T12:50:57;6.40;97.30
48686;DHT22;34485;51.536;3.816;2023-02-28T12:53:50;6.20;95.70
48686;DHT22;34485;51.536;3.816;2023-02-28T12:56:29;6.20;94.90
48686;DHT22;34485;51.536;3.816;2023-02-28T12:59:14;6.20;95.40
48686;DHT22;34485;51.536;3.816;2023-02-28T13:02:27;6.20;95.70
48686;DHT22;34485;51.536;3.816;2023-02-28T13:10:18;6.30;97.60
48686;DHT22;34485;51.536;3.816;2023-02-28T13:12:52;6.20;96.90
48686;DHT22;34485;51.536;3.816;2023-02-28T13:15:24;6.20;96.80
48686;DHT22;34485;51.536;3.816;2023-02-28T13:17:52;6.30;97.50
48686;DHT22;34485;51.536;3.816;2023-02-28T13:20:23;6.30;94.30
48686;DHT22;34485;51.536;3.816;2023-02-28T13:22:51;6.30;93.60
48686;DHT22;34485;51.536;3.816;2023-02-28T13:28:00;6.30;92.50
48686;DHT22;34485;51.536;3.816;2023-02-28T13:33:35;6.30;93.20
48686;DHT22;34485;51.536;3.816;2023-02-28T13:36:11;6.20;92.30
48686;DHT22;34485;51.536;3.816;2023-02-28T13:38:59;6.10;90.60
48686;DHT22;34485;51.536;3.816;2023-02-28T13:44:03;6.30;93.00
48686;DHT22;34485;51.536;3.816;2023-02-28T13:46:29;6.20;90.30
48686;DHT22;34485;51.536;3.816;2023-02-28T13:48:55;6.30;93.50
48686;DHT22;34485;51.536;3.816;2023-02-28T13:51:43;6.30;92.80
48686;DHT22;34485;51.536;3.816;2023-02-28T13:54:21;6.30;91.20
48686;DHT22;34485;51.536;3.816;2023-02-28T13:59:47;6.30;94.20
48686;DHT22;34485;51.536;3.816;2023-02-28T14:02:45;6.30;92.10
48686;DHT22;34485;51.536;3.816;2023-02-28T14:05:19;6.20;91.70
48686;DHT22;34485;51.536;3.816;2023-02-28T14:07:53;6.20;92.80
48686;DHT22;34485;51.536;3.816;2023-02-28T14:10:45;6.10;92.80
48686;DHT22;34485;51.536;3.816;2023-02-28T14:16:01;6.10;93.20
48686;DHT22;34485;51.536;3.816;2023-02-28T14:18:31;6.10;92.40
48686;DHT22;34485;51.536;3.816;2023-02-28T14:35:55;6.00;91.20
48686;DHT22;34485;51.536;3.816;2023-02-28T14:37:45;5.90;91.80
48686;DHT22;34485;51.536;3.816;2023-02-28T14:40:33;6.00;92.20
48686;DHT22;34485;51.536;3.816;2023-02-28T14:43:02;5.90;89.20
48686;DHT22;34485;51.536;3.816;2023-02-28T14:45:33;5.90;91.40
48686;DHT22;34485;51.536;3.816;2023-02-28T14:48:01;5.90;90.60
48686;DHT22;34485;51.536;3.816;2023-02-28T14:50:33;5.90;91.00
48686;DHT22;34485;51.536;3.816;2023-02-28T14:52:59;5.90;91.20
48686;DHT22;34485;51.536;3.816;2023-02-28T14:55:35;5.90;90.60
48686;DHT22;34485;51.536;3.816;2023-02-28T14:58:04;5.90;91.30
48686;DHT22;34485;51.536;3.816;2023-02-28T15:00:36;5.90;91.10
48686;DHT22;34485;51.536;3.816;2023-02-28T15:03:39;5.90;90.70
48686;DHT22;34485;51.536;3.816;2023-02-28T15:06:11;5.90;91.80
48686;DHT22;34485;51.536;3.816;2023-02-28T15:08:37;5.90;90.40
48686;DHT22;34485;51.536;3.816;2023-02-28T15:11:20;5.80;90.20
48686;DHT22;34485;51.536;3.816;2023-02-28T15:13:50;5.80;90.70
48686;DHT22;34485;51.536;3.816;2023-02-28T15:16:34;5.80;90.60
48686;DHT22;34485;51.536;3.816;2023-02-28T15:19:21;5.80;89.70
48686;DHT22;34485;51.536;3.816;2023-02-28T15:21:52;5.80;90.00
48686;DHT22;34485;51.536;3.816;2023-02-28T15:24:37;5.70;89.20
48686;DHT22;34485;51.536;3.816;2023-02-28T15:27:27;5.70;90.30
48686;DHT22;34485;51.536;3.816;2023-02-28T15:29:56;5.70;90.10
48686;DHT22;34485;51.536;3.816;2023-02-28T15:32:31;5.70;90.30
48686;DHT22;34485;51.536;3.816;2023-02-28T15:34:59;5.70;90.10
48686;DHT22;34485;51.536;3.816;2023-02-28T15:37:39;5.60;91.20
48686;DHT22;34485;51.536;3.816;2023-02-28T15:40:29;5.60;91.00
48686;DHT22;34485;51.536;3.816;2023-02-28T15:43:16;5.60;91.60
48686;DHT22;34485;51.536;3.816;2023-02-28T15:45:55;5.60;89.40
48686;DHT22;34485;51.536;3.816;2023-02-28T15:51:11;5.50;90.50
48686;DHT22;34485;51.536;3.816;2023-02-28T15:56:26;5.50;90.60
48686;DHT22;34485;51.536;3.816;2023-02-28T15:58:56;5.40;91.50
48686;DHT22;34485;51.536;3.816;2023-02-28T16:01:25;5.40;90.60
48686;DHT22;34485;51.536;3.816;2023-02-28T16:03:55;5.40;90.70
48686;DHT22;34485;51.536;3.816;2023-02-28T16:06:35;5.40;91.60
48686;DHT22;34485;51.536;3.816;2023-02-28T16:09:04;5.30;91.20
48686;DHT22;34485;51.536;3.816;2023-02-28T16:11:30;5.30;91.10
48686;DHT22;34485;51.536;3.816;2023-02-28T16:13:57;5.30;91.60
48686;DHT22;34485;51.536;3.816;2023-02-28T16:16:24;5.20;91.80
48686;DHT22;34485;51.536;3.816;2023-02-28T16:18:51;5.20;89.60
48686;DHT22;34485;51.536;3.816;2023-02-28T16:21:16;5.20;91.60
48686;DHT22;34485;51.536;3.816;2023-02-28T16:23:42;5.10;93.20
48686;DHT22;34485;51.536;3.816;2023-02-28T16:26:09;5.10;93.70
48686;DHT22;34485;51.536;3.816;2023-02-28T16:28:41;5.00;92.90
48686;DHT22;34485;51.536;3.816;2023-02-28T16:31:07;5.00;91.70
48686;DHT22;34485;51.536;3.816;2023-02-28T16:33:33;5.00;91.40
48686;DHT22;34485;51.536;3.816;2023-02-28T16:36:00;4.90;93.50
48686;DHT22;34485;51.536;3.816;2023-02-28T16:38:26;4.90;93.60
48686;DHT22;34485;51.536;3.816;2023-02-28T16:41:00;4.90;93.80
48686;DHT22;34485;51.536;3.816;2023-02-28T16:43:26;4.80;94.60
48686;DHT22;34485;51.536;3.816;2023-02-28T16:45:56;4.80;92.50
48686;DHT22;34485;51.536;3.816;2023-02-28T16:48:26;4.80;91.00
48686;DHT22;34485;51.536;3.816;2023-02-28T16:50:52;4.80;91.10
48686;DHT22;34485;51.536;3.816;2023-02-28T16:53:18;4.70;93.40
48686;DHT22;34485;51.536;3.816;2023-02-28T16:55:43;4.70;93.40
48686;DHT22;34485;51.536;3.816;2023-02-28T16:58:14;4.60;92.50
48686;DHT22;34485;51.536;3.816;2023-02-28T17:00:40;4.60;92.80
48686;DHT22;34485;51.536;3.816;2023-02-28T17:03:24;4.60;93.70
48686;DHT22;34485;51.536;3.816;2023-02-28T17:05:50;4.50;95.60
48686;DHT22;34485;51.536;3.816;2023-02-28T17:08:16;4.40;95.70
48686;DHT22;34485;51.536;3.816;2023-02-28T17:10:42;4.30;95.20
48686;DHT22;34485;51.536;3.816;2023-02-28T17:13:07;4.30;94.30
48686;DHT22;34485;51.536;3.816;2023-02-28T17:15:34;4.30;96.10
48686;DHT22;34485;51.536;3.816;2023-02-28T17:17:59;4.20;96.20
48686;DHT22;34485;51.536;3.816;2023-02-28T17:20:25;4.00;98.50
48686;DHT22;34485;51.536;3.816;2023-02-28T17:22:52;3.90;99.40
48686;DHT22;34485;51.536;3.816;2023-02-28T17:25:18;3.90;98.30
48686;DHT22;34485;51.536;3.816;2023-02-28T17:27:45;3.90;97.30
48686;DHT22;34485;51.536;3.816;2023-02-28T17:30:20;3.80;98.40
48686;DHT22;34485;51.536;3.816;2023-02-28T17:32:46;3.80;99.20
48686;DHT22;34485;51.536;3.816;2023-02-28T17:35:12;3.70;99.90
48686;DHT22;34485;51.536;3.816;2023-02-28T17:37:38;3.60;99.90
48686;DHT22;34485;51.536;3.816;2023-02-28T17:40:04;3.50;99.80
48686;DHT22;34485;51.536;3.816;2023-02-28T17:42:30;3.40;99.90
48686;DHT22;34485;51.536;3.816;2023-02-28T17:44:56;3.30;99.90
48686;DHT22;34485;51.536;3.816;2023-02-28T17:47:21;3.20;99.90
48686;DHT22;34485;51.536;3.816;2023-02-28T17:49:47;3.00;99.90
48686;DHT22;34485;51.536;3.816;2023-02-28T17:52:13;3.00;99.90
48686;DHT22;34485;51.536;3.816;2023-02-28T17:54:38;2.90;99.90
48686;DHT22;34485;51.536;3.816;2023-02-28T17:57:04;2.80;99.90
48686;DHT22;34485;51.536;3.816;2023-02-28T17:59:29;2.80;99.90
48686;DHT22;34485;51.536;3.816;2023-02-28T18:02:00;2.70;99.90
48686;DHT22;34485;51.536;3.816;2023-02-28T18:04:26;2.80;99.90
48686;DHT22;34485;51.536;3.816;2023-02-28T18:06:53;2.90;99.90
48686;DHT22;34485;51.536;3.816;2023-02-28T18:09:22;3.00;99.90
48686;DHT22;34485;51.536;3.816;2023-02-28T18:11:51;3.00;99.90
48686;DHT22;34485;51.536;3.816;2023-02-28T18:14:19;2.90;99.90
48686;DHT22;34485;51.536;3.816;2023-02-28T18:16:46;2.80;99.90
48686;DHT22;34485;51.536;3.816;2023-02-28T18:19:13;2.70;99.90
48686;DHT22;34485;51.536;3.816;2023-02-28T18:21:45;2.60;99.90
48686;DHT22;34485;51.536;3.816;2023-02-28T18:24:11;2.50;99.90
48686;DHT22;34485;51.536;3.816;2023-02-28T18:26:37;2.50;99.90
48686;DHT22;34485;51.536;3.816;2023-02-28T18:29:04;2.40;99.90